Time;durP1;ratioP1;P1;durP2;ratioP2;P2;SDS_P1;SDS_P2;PMS_P1;PMS_P2;Temp;Humidity;BMP_temperature;BMP_pressure;BME280_temperature;BME280_humidity;BME280_pressure;Samples;Min_cycle;Max_cycle;Signal;HPM_P1;HPM_P2
2022/10/11 00:00:19;;;;;;;12.82;4.55;;;;;;;;;;5023527;28;20037;-62
2022/10/11 00:02:44;;;;;;;14.88;4.60;;;;;;;;;;5033095;28;20124;-62
2022/10/11 00:05:10;;;;;;;12.57;4.85;;;;;;;;;;5027369;28;20126;-61
2022/10/11 00:07:36;;;;;;;12.38;4.72;;;;;;;;;;5013686;28;20141;-60
2022/10/11 00:10:03;;;;;;;12.00;4.22;;;;;;;;;;5011304;28;20044;-59
2022/10/11 00:12:29;;;;;;;14.93;4.50;;;;;;;;;;5017916;28;20057;-61
2022/10/11 00:14:54;;;;;;;13.55;4.28;;;;;;;;;;5031091;28;20076;-63
2022/10/11 00:17:19;;;;;;;11.55;4.43;;;;;;;;;;5036423;28;20055;-61
2022/10/11 00:19:45;;;;;;;10.43;4.82;;;;;;;;;;5024550;28;20057;-63
2022/10/11 00:22:11;;;;;;;9.32;4.22;;;;;;;;;;5017747;28;20554;-62
2022/10/11 00:24:36;;;;;;;15.35;4.75;;;;;;;;;;5028615;28;20051;-61
2022/10/11 00:27:01;;;;;;;15.80;5.32;;;;;;;;;;5029115;28;20090;-61
2022/10/11 00:29:27;;;;;;;10.90;5.18;;;;;;;;;;5032182;28;20025;-61
2022/10/11 00:31:52;;;;;;;14.13;5.15;;;;;;;;;;5029612;28;20401;-62
2022/10/11 00:34:17;;;;;;;12.77;4.90;;;;;;;;;;5012266;28;20037;-62
2022/10/11 00:36:44;;;;;;;15.07;5.28;;;;;;;;;;5014318;28;20052;-62
2022/10/11 00:39:10;;;;;;;12.32;5.47;;;;;;;;;;5021907;28;20033;-61
2022/10/11 00:41:35;;;;;;;13.68;5.70;;;;;;;;;;5049995;28;20033;-62
2022/10/11 00:44:19;;;;;;;16.90;5.30;;;;;;;;;;5033287;28;20455;-61
2022/10/11 00:47:06;;;;;;;12.05;4.65;;;;;;;;;;5011155;28;20053;-62
2022/10/11 00:49:34;;;;;;;12.45;4.80;;;;;;;;;;5031562;28;20528;-61
2022/10/11 00:52:05;;;;;;;10.40;4.40;;;;;;;;;;5026041;28;20044;-61
2022/10/11 00:54:34;;;;;;;11.80;4.70;;;;;;;;;;5028654;28;20036;-62
2022/10/11 00:57:04;;;;;;;12.68;3.97;;;;;;;;;;5037981;28;20075;-61
2022/10/11 00:59:35;;;;;;;13.45;4.60;;;;;;;;;;5030662;28;20084;-62
2022/10/11 01:02:00;;;;;;;10.18;4.40;;;;;;;;;;5025043;28;20044;-60
2022/10/11 01:04:25;;;;;;;10.13;4.03;;;;;;;;;;5032734;28;20046;-63
2022/10/11 01:06:52;;;;;;;14.52;4.40;;;;;;;;;;5022105;28;20117;-62
2022/10/11 01:09:18;;;;;;;14.35;4.85;;;;;;;;;;5019889;28;20029;-62
2022/10/11 01:11:48;;;;;;;16.35;4.97;;;;;;;;;;5018802;28;20061;-63
2022/10/11 01:14:16;;;;;;;11.50;4.88;;;;;;;;;;5011416;28;20030;-62
2022/10/11 01:16:48;;;;;;;11.50;4.43;;;;;;;;;;5031628;28;20055;-61
2022/10/11 01:19:20;;;;;;;13.60;5.03;;;;;;;;;;5033270;28;20064;-62
2022/10/11 01:21:55;;;;;;;17.77;5.22;;;;;;;;;;5013279;28;20457;-64
2022/10/11 01:24:57;;;;;;;14.45;5.65;;;;;;;;;;5021935;28;20041;-62
2022/10/11 01:27:28;;;;;;;17.80;5.18;;;;;;;;;;5020646;28;20044;-61
2022/10/11 01:30:12;;;;;;;;;;;;;;;;;;5034631;28;20113;-59
2022/10/11 01:32:56;;;;;;;12.15;4.82;;;;;;;;;;5024357;28;20422;-60
2022/10/11 01:35:54;;;;;;;14.00;4.50;;;;;;;;;;5025449;28;20053;-62
2022/10/11 01:38:48;;;;;;;17.35;5.50;;;;;;;;;;5024459;28;20069;-61
2022/10/11 01:41:22;;;;;;;18.35;5.97;;;;;;;;;;5034682;28;20045;-61
2022/10/11 01:43:51;;;;;;;16.95;5.80;;;;;;;;;;5035073;28;20033;-63
2022/10/11 01:46:18;;;;;;;19.85;6.93;;;;;;;;;;5041502;28;20036;-61
2022/10/11 01:48:52;;;;;;;18.83;6.53;;;;;;;;;;5019640;28;20469;-61
2022/10/11 01:51:47;;;;;;;17.00;5.45;;;;;;;;;;5027643;28;20101;-61
2022/10/11 01:54:35;;;;;;;17.75;5.10;;;;;;;;;;5014229;28;20057;-61
2022/10/11 01:57:34;;;;;;;10.40;4.68;;;;;;;;;;5019153;28;20223;-61
2022/10/11 02:00:12;;;;;;;18.30;6.13;;;;;;;;;;5031275;28;20040;-60
2022/10/11 02:02:59;;;;;;;14.15;6.75;;;;;;;;;;5033336;28;20037;-61
2022/10/11 02:05:45;;;;;;;14.63;5.95;;;;;;;;;;5015936;28;20033;-62
2022/10/11 02:08:17;;;;;;;19.20;6.30;;;;;;;;;;5037606;28;20527;-63
2022/10/11 02:10:48;;;;;;;17.35;6.30;;;;;;;;;;5049794;28;20033;-61
2022/10/11 02:13:22;;;;;;;14.38;5.85;;;;;;;;;;5039124;28;20045;-62
2022/10/11 02:15:49;;;;;;;17.80;5.65;;;;;;;;;;5022656;28;20037;-64
2022/10/11 02:18:20;;;;;;;14.50;5.50;;;;;;;;;;5011646;28;20034;-62
2022/10/11 02:20:47;;;;;;;15.70;5.38;;;;;;;;;;5013881;28;20187;-61
2022/10/11 02:23:19;;;;;;;14.32;5.40;;;;;;;;;;5031091;28;20026;-63
2022/10/11 02:25:47;;;;;;;10.23;5.50;;;;;;;;;;5032625;28;20032;-64
2022/10/11 02:28:18;;;;;;;14.52;5.70;;;;;;;;;;5020509;28;20058;-63
2022/10/11 02:30:46;;;;;;;27.17;7.18;;;;;;;;;;5016402;28;20034;-62
2022/10/11 02:33:14;;;;;;;21.55;7.03;;;;;;;;;;5022796;28;20603;-62
2022/10/11 02:35:48;;;;;;;15.45;6.50;;;;;;;;;;5032856;28;20036;-61
2022/10/11 02:38:20;;;;;;;18.90;6.57;;;;;;;;;;5012906;28;20037;-61
2022/10/11 02:40:50;;;;;;;20.27;6.20;;;;;;;;;;5024717;28;20029;-64
2022/10/11 02:43:31;;;;;;;21.13;6.78;;;;;;;;;;5012294;28;20363;-62
2022/10/11 02:45:59;;;;;;;21.73;6.57;;;;;;;;;;5027275;28;20033;-63
2022/10/11 02:48:28;;;;;;;13.68;6.20;;;;;;;;;;5013274;28;20041;-62
2022/10/11 02:50:56;;;;;;;16.27;6.00;;;;;;;;;;5014384;28;20022;-62
2022/10/11 02:53:22;;;;;;;15.32;5.55;;;;;;;;;;5029687;28;20048;-61
2022/10/11 02:55:50;;;;;;;12.45;5.40;;;;;;;;;;5029825;28;20033;-62
2022/10/11 02:58:15;;;;;;;11.65;5.72;;;;;;;;;;5012919;28;20041;-61
2022/10/11 03:00:40;;;;;;;15.05;5.53;;;;;;;;;;5015968;28;20030;-61
2022/10/11 03:03:06;;;;;;;15.77;5.88;;;;;;;;;;5028788;28;20489;-62
2022/10/11 03:05:36;;;;;;;13.52;5.57;;;;;;;;;;5030213;28;20049;-63
2022/10/11 03:08:02;;;;;;;13.23;6.03;;;;;;;;;;5013134;28;20033;-63
2022/10/11 03:10:27;;;;;;;15.60;6.18;;;;;;;;;;5019439;28;20086;-62
2022/10/11 03:12:52;;;;;;;23.35;7.30;;;;;;;;;;5020087;28;20087;-65
2022/10/11 03:15:18;;;;;;;39.17;8.13;;;;;;;;;;5044490;28;20025;-63
2022/10/11 03:17:43;;;;;;;43.03;9.77;;;;;;;;;;5028370;28;20041;-62
2022/10/11 03:20:09;;;;;;;38.53;9.38;;;;;;;;;;5026545;28;20021;-65
2022/10/11 03:22:35;;;;;;;37.28;10.20;;;;;;;;;;5014884;28;20072;-62
2022/10/11 03:25:00;;;;;;;26.02;10.13;;;;;;;;;;5042723;28;20040;-62
2022/10/11 03:27:26;;;;;;;29.13;9.43;;;;;;;;;;5050347;28;20485;-62
2022/10/11 03:29:51;;;;;;;30.02;8.82;;;;;;;;;;5017737;28;20091;-63
2022/10/11 03:32:16;;;;;;;29.00;8.80;;;;;;;;;;5027628;28;20129;-61
2022/10/11 03:34:42;;;;;;;18.15;7.43;;;;;;;;;;5034653;28;20053;-61
2022/10/11 03:37:07;;;;;;;24.48;8.30;;;;;;;;;;5018300;28;20042;-62
2022/10/11 03:39:32;;;;;;;23.88;7.38;;;;;;;;;;5032080;28;20120;-62
2022/10/11 03:41:58;;;;;;;26.27;8.43;;;;;;;;;;5046475;28;20037;-61
2022/10/11 03:44:23;;;;;;;28.58;8.73;;;;;;;;;;5050449;28;20036;-61
2022/10/11 03:46:48;;;;;;;29.90;8.85;;;;;;;;;;5046756;28;20037;-62
2022/10/11 03:49:14;;;;;;;44.17;9.90;;;;;;;;;;5049868;28;20078;-61
2022/10/11 03:51:39;;;;;;;32.55;9.88;;;;;;;;;;5030671;28;20472;-62
2022/10/11 03:54:04;;;;;;;35.88;10.75;;;;;;;;;;5048721;28;20440;-62
2022/10/11 03:56:31;;;;;;;34.85;9.10;;;;;;;;;;5051783;28;20029;-61
2022/10/11 03:58:56;;;;;;;51.88;9.95;;;;;;;;;;5050076;28;20033;-63
2022/10/11 04:01:22;;;;;;;45.67;10.27;;;;;;;;;;5051437;28;20094;-61
2022/10/11 04:03:47;;;;;;;32.33;9.88;;;;;;;;;;5039842;28;20536;-63
2022/10/11 04:06:12;;;;;;;38.97;9.82;;;;;;;;;;5045715;28;20037;-62
2022/10/11 04:08:38;;;;;;;36.20;9.95;;;;;;;;;;5024720;28;20032;-62
2022/10/11 04:11:03;;;;;;;35.95;10.38;;;;;;;;;;5012756;28;20046;-63
2022/10/11 04:13:29;;;;;;;39.85;10.85;;;;;;;;;;5014766;28;20041;-62
2022/10/11 04:15:54;;;;;;;39.25;11.20;;;;;;;;;;5031675;28;20107;-64
2022/10/11 04:18:19;;;;;;;26.63;10.10;;;;;;;;;;5018833;28;20061;-62
2022/10/11 04:20:45;;;;;;;28.70;11.07;;;;;;;;;;5020039;28;20052;-62
2022/10/11 04:23:10;;;;;;;28.58;11.02;;;;;;;;;;5023328;28;20061;-62
2022/10/11 04:25:38;;;;;;;34.33;11.10;;;;;;;;;;5027854;28;20055;-63
2022/10/11 04:28:03;;;;;;;34.03;10.82;;;;;;;;;;5038707;28;20564;-64
2022/10/11 04:30:29;;;;;;;34.13;10.30;;;;;;;;;;5028376;28;20085;-67
2022/10/11 04:32:54;;;;;;;38.00;10.55;;;;;;;;;;5025290;28;20049;-64
2022/10/11 04:35:20;;;;;;;39.72;10.48;;;;;;;;;;5015565;28;20098;-64
2022/10/11 04:37:45;;;;;;;22.58;9.30;;;;;;;;;;5015473;28;20029;-65
2022/10/11 04:40:11;;;;;;;44.38;11.20;;;;;;;;;;5032324;28;20111;-65
2022/10/11 04:42:36;;;;;;;22.75;9.73;;;;;;;;;;5021445;28;20034;-64
2022/10/11 04:45:02;;;;;;;24.00;9.73;;;;;;;;;;5034474;28;20033;-64
2022/10/11 04:47:27;;;;;;;38.38;10.88;;;;;;;;;;5047650;28;20531;-66
2022/10/11 04:49:52;;;;;;;25.55;10.00;;;;;;;;;;5025233;28;20037;-67
2022/10/11 04:52:18;;;;;;;26.20;9.98;;;;;;;;;;5035779;28;20108;-66
2022/10/11 04:54:43;;;;;;;23.83;9.65;;;;;;;;;;5031552;28;20129;-67
2022/10/11 04:57:08;;;;;;;29.88;10.40;;;;;;;;;;5034129;28;20026;-65
2022/10/11 04:59:34;;;;;;;31.17;9.85;;;;;;;;;;5030159;28;20428;-66
2022/10/11 05:01:59;;;;;;;33.78;10.18;;;;;;;;;;5032085;28;20057;-67
2022/10/11 05:04:25;;;;;;;22.98;9.23;;;;;;;;;;5043951;28;20408;-65
2022/10/11 05:06:50;;;;;;;31.95;11.50;;;;;;;;;;5028602;28;20025;-65
2022/10/11 05:09:15;;;;;;;27.70;10.15;;;;;;;;;;5017367;28;20544;-67
2022/10/11 05:11:41;;;;;;;29.00;10.02;;;;;;;;;;5027559;28;20474;-66
2022/10/11 05:14:06;;;;;;;24.65;9.57;;;;;;;;;;5047535;28;20088;-69
2022/10/11 05:16:32;;;;;;;30.17;10.38;;;;;;;;;;5050918;28;20036;-69
2022/10/11 05:18:57;;;;;;;29.35;10.30;;;;;;;;;;5051533;28;20057;-69
2022/10/11 05:21:28;;;;;;;18.38;9.07;;;;;;;;;;5048161;28;20041;-68
2022/10/11 05:23:57;;;;;;;21.58;9.73;;;;;;;;;;5050127;28;20036;-69
2022/10/11 05:26:24;;;;;;;22.42;8.95;;;;;;;;;;5030914;28;20037;-69
2022/10/11 05:28:51;;;;;;;25.13;9.65;;;;;;;;;;5040300;28;20032;-67
2022/10/11 05:31:16;;;;;;;23.42;9.50;;;;;;;;;;5053974;28;20116;-71
2022/10/11 05:33:42;;;;;;;26.88;9.57;;;;;;;;;;5018628;28;20117;-72
2022/10/11 05:36:08;;;;;;;32.80;10.20;;;;;;;;;;5050113;28;20504;-74
2022/10/11 05:38:33;;;;;;;28.60;10.02;;;;;;;;;;5051848;28;20040;-75
2022/10/11 05:41:00;;;;;;;38.22;10.32;;;;;;;;;;5050690;28;20029;-71
2022/10/11 05:43:26;;;;;;;28.92;9.75;;;;;;;;;;5052946;28;20048;-74
2022/10/11 05:45:51;;;;;;;31.20;10.38;;;;;;;;;;5050659;28;20412;-76
2022/10/11 05:48:17;;;;;;;25.20;9.98;;;;;;;;;;5054000;28;20040;-77
2022/10/11 05:50:42;;;;;;;30.10;9.80;;;;;;;;;;5043635;28;20124;-75
2022/10/11 05:53:08;;;;;;;25.23;9.60;;;;;;;;;;5040032;28;20466;-76
2022/10/11 05:55:38;;;;;;;23.73;9.38;;;;;;;;;;5031008;28;20040;-74
2022/10/11 05:58:04;;;;;;;27.77;10.65;;;;;;;;;;5020961;28;20034;-73
2022/10/11 06:00:29;;;;;;;22.58;9.85;;;;;;;;;;5022421;28;20458;-72
2022/10/11 06:02:55;;;;;;;26.33;9.90;;;;;;;;;;5038275;28;20040;-74
2022/10/11 06:05:20;;;;;;;30.38;11.00;;;;;;;;;;5047649;28;20059;-72
2022/10/11 06:07:45;;;;;;;27.30;9.45;;;;;;;;;;5033223;28;20044;-72
2022/10/11 06:10:11;;;;;;;27.90;9.73;;;;;;;;;;5033912;28;20436;-71
2022/10/11 06:12:37;;;;;;;33.75;10.60;;;;;;;;;;5034993;28;20036;-72
2022/10/11 06:15:03;;;;;;;35.63;11.05;;;;;;;;;;5036489;28;20041;-68
2022/10/11 06:17:28;;;;;;;41.58;11.95;;;;;;;;;;5036613;28;20474;-74
2022/10/11 06:19:54;;;;;;;35.92;11.35;;;;;;;;;;5043435;28;20029;-73
2022/10/11 06:22:19;;;;;;;25.05;9.90;;;;;;;;;;5035986;28;20052;-73
2022/10/11 06:24:44;;;;;;;26.80;10.60;;;;;;;;;;5044276;28;20101;-75
2022/10/11 06:27:11;;;;;;;34.35;11.18;;;;;;;;;;5052533;28;20028;-67
2022/10/11 06:29:36;;;;;;;35.42;12.07;;;;;;;;;;5047924;28;20045;-68
2022/10/11 06:32:02;;;;;;;39.00;12.25;;;;;;;;;;5052433;28;20112;-74
2022/10/11 06:34:27;;;;;;;39.78;12.57;;;;;;;;;;5046986;28;20091;-75
2022/10/11 06:36:53;;;;;;;45.78;13.35;;;;;;;;;;5040512;28;20059;-70
2022/10/11 06:39:18;;;;;;;45.75;13.10;;;;;;;;;;5050715;28;20075;-71
2022/10/11 06:41:44;;;;;;;39.92;12.65;;;;;;;;;;5041409;28;20043;-72
2022/10/11 06:44:10;;;;;;;43.05;12.85;;;;;;;;;;5044776;28;20036;-72
2022/10/11 06:46:36;;;;;;;38.70;11.98;;;;;;;;;;5051512;28;20079;-71
2022/10/11 06:49:02;;;;;;;48.70;13.63;;;;;;;;;;5052764;28;20029;-72
2022/10/11 06:51:28;;;;;;;38.60;13.95;;;;;;;;;;5044500;28;20094;-77
2022/10/11 06:53:57;;;;;;;32.50;13.30;;;;;;;;;;5036517;28;20033;-76
2022/10/11 06:56:24;;;;;;;41.08;13.73;;;;;;;;;;5050389;28;20032;-75
2022/10/11 06:58:52;;;;;;;46.85;13.85;;;;;;;;;;5022382;28;20077;-76
2022/10/11 07:01:20;;;;;;;39.83;13.95;;;;;;;;;;5018893;28;20453;-70
2022/10/11 07:03:46;;;;;;;42.15;13.82;;;;;;;;;;5028967;28;20033;-75
2022/10/11 07:06:14;;;;;;;38.42;14.88;;;;;;;;;;5034916;28;20025;-76
2022/10/11 07:08:40;;;;;;;43.30;14.35;;;;;;;;;;5039747;28;20096;-74
2022/10/11 07:11:14;;;;;;;45.85;14.35;;;;;;;;;;5040584;28;20450;-74
2022/10/11 07:13:40;;;;;;;34.72;15.10;;;;;;;;;;5051080;28;20416;-73
2022/10/11 07:16:09;;;;;;;48.10;15.07;;;;;;;;;;5028991;28;20070;-72
2022/10/11 07:18:35;;;;;;;42.88;15.57;;;;;;;;;;5048613;28;20040;-73
2022/10/11 07:21:03;;;;;;;39.33;15.52;;;;;;;;;;5048277;28;20045;-72
2022/10/11 07:23:29;;;;;;;45.28;16.10;;;;;;;;;;5050525;28;20043;-72
2022/10/11 07:25:54;;;;;;;36.78;14.93;;;;;;;;;;5050171;28;20037;-74
2022/10/11 07:28:21;;;;;;;42.97;16.45;;;;;;;;;;5046803;28;20037;-74
2022/10/11 07:30:47;;;;;;;45.97;16.38;;;;;;;;;;5050701;28;20032;-71
2022/10/11 07:33:12;;;;;;;41.72;17.65;;;;;;;;;;5022214;28;20040;-74
2022/10/11 07:35:38;;;;;;;43.33;18.63;;;;;;;;;;5012342;28;20038;-73
2022/10/11 07:38:05;;;;;;;38.85;17.83;;;;;;;;;;5042934;28;20128;-73
2022/10/11 07:40:32;;;;;;;42.83;18.42;;;;;;;;;;5050280;28;20033;-71
2022/10/11 07:42:57;;;;;;;43.13;19.15;;;;;;;;;;5052081;28;20033;-71
2022/10/11 07:45:27;;;;;;;40.70;19.63;;;;;;;;;;5044886;28;20024;-72
2022/10/11 07:47:56;;;;;;;48.55;20.10;;;;;;;;;;5051668;28;20440;-72
2022/10/11 07:50:25;;;;;;;49.67;21.00;;;;;;;;;;5041349;28;20036;-71
2022/10/11 07:52:50;;;;;;;46.97;23.45;;;;;;;;;;5036386;28;20482;-70
2022/10/11 07:55:16;;;;;;;55.75;23.10;;;;;;;;;;5025234;28;20113;-71
2022/10/11 07:57:41;;;;;;;56.47;23.02;;;;;;;;;;5046368;28;20107;-73
2022/10/11 08:00:07;;;;;;;62.40;23.55;;;;;;;;;;5045966;28;20029;-73
2022/10/11 08:02:32;;;;;;;71.57;23.35;;;;;;;;;;5041019;28;20033;-75
2022/10/11 08:04:58;;;;;;;48.90;22.10;;;;;;;;;;5050639;28;20159;-72
2022/10/11 08:07:24;;;;;;;47.22;22.95;;;;;;;;;;5045141;28;20059;-72
2022/10/11 08:09:49;;;;;;;54.90;23.80;;;;;;;;;;5051582;28;20053;-73
2022/10/11 08:12:14;;;;;;;53.88;23.80;;;;;;;;;;5033728;28;20033;-75
2022/10/11 08:14:42;;;;;;;51.40;23.30;;;;;;;;;;5050595;28;20116;-74
2022/10/11 08:17:08;;;;;;;54.67;24.80;;;;;;;;;;5048209;28;20028;-74
2022/10/11 08:19:33;;;;;;;48.33;21.95;;;;;;;;;;5029781;28;20072;-76
2022/10/11 08:21:59;;;;;;;45.05;20.77;;;;;;;;;;5042006;28;20041;-75
2022/10/11 08:24:24;;;;;;;44.97;21.10;;;;;;;;;;5024682;28;20059;-74
2022/10/11 08:26:50;;;;;;;45.65;20.48;;;;;;;;;;5047841;28;20045;-74
2022/10/11 08:29:16;;;;;;;41.40;20.30;;;;;;;;;;5036562;28;20083;-74
2022/10/11 08:31:43;;;;;;;41.85;19.83;;;;;;;;;;5037886;28;20037;-73
2022/10/11 08:34:12;;;;;;;54.25;20.52;;;;;;;;;;5029112;28;20037;-71
2022/10/11 08:36:38;;;;;;;41.67;20.02;;;;;;;;;;5051121;28;20029;-75
2022/10/11 08:39:05;;;;;;;43.38;20.52;;;;;;;;;;5034218;28;20038;-71
2022/10/11 08:41:38;;;;;;;41.05;18.00;;;;;;;;;;5012109;28;20455;-72
2022/10/11 08:44:33;;;;;;;34.35;15.00;;;;;;;;;;5028163;28;20034;-70
2022/10/11 08:47:04;;;;;;;34.75;15.48;;;;;;;;;;5030717;28;20082;-71
2022/10/11 08:49:32;;;;;;;35.13;14.05;;;;;;;;;;5049066;28;20037;-73
2022/10/11 08:52:04;;;;;;;37.35;14.13;;;;;;;;;;5052524;28;20036;-74
2022/10/11 08:54:39;;;;;;;31.10;13.52;;;;;;;;;;5049847;28;20099;-75
2022/10/11 08:57:05;;;;;;;30.30;14.32;;;;;;;;;;5031696;28;20076;-73
2022/10/11 08:59:52;;;;;;;29.60;13.73;;;;;;;;;;5027384;28;20470;-75
2022/10/11 09:02:49;;;;;;;27.50;13.02;;;;;;;;;;5041755;28;20036;-75
2022/10/11 09:05:16;;;;;;;25.35;12.27;;;;;;;;;;5042499;28;20447;-73
2022/10/11 09:08:02;;;;;;;31.42;10.85;;;;;;;;;;5049785;28;20064;-74
2022/10/11 09:10:52;;;;;;;23.95;9.90;;;;;;;;;;5042679;28;20041;-72
2022/10/11 09:14:03;;;;;;;23.20;8.20;;;;;;;;;;5011630;28;20107;-73
2022/10/11 09:16:54;;;;;;;17.90;7.57;;;;;;;;;;5058297;28;20036;-73
2022/10/11 09:19:40;;;;;;;20.13;6.03;;;;;;;;;;5047635;28;20515;-70
2022/10/11 09:22:21;;;;;;;20.02;6.90;;;;;;;;;;5050162;28;20061;-71
2022/10/11 09:25:09;;;;;;;19.80;5.88;;;;;;;;;;5049135;28;20028;-72
2022/10/11 09:27:38;;;;;;;19.60;7.68;;;;;;;;;;5050617;28;20066;-75
2022/10/11 09:30:14;;;;;;;20.20;6.75;;;;;;;;;;5045636;28;20090;-70
2022/10/11 09:32:46;;;;;;;14.43;5.05;;;;;;;;;;5010027;28;20034;-74
2022/10/11 09:35:15;;;;;;;19.90;6.35;;;;;;;;;;5024063;28;20080;-72
2022/10/11 09:37:59;;;;;;;18.58;5.93;;;;;;;;;;5050761;28;20112;-73
2022/10/11 09:40:30;;;;;;;12.95;4.63;;;;;;;;;;5033204;28;20090;-67
2022/10/11 09:42:55;;;;;;;;;;;;;;;;;;5039013;28;20041;-63
2022/10/11 09:45:22;;;;;;;18.98;5.35;;;;;;;;;;5043256;28;19922;-70
2022/10/11 09:47:49;;;;;;;11.73;4.22;;;;;;;;;;5040303;28;20037;-73
2022/10/11 09:50:18;;;;;;;13.05;4.25;;;;;;;;;;5027517;28;20429;-67
2022/10/11 09:52:59;;;;;;;14.10;3.75;;;;;;;;;;5050940;28;20041;-67
2022/10/11 09:55:32;;;;;;;10.03;3.00;;;;;;;;;;5051043;28;20099;-70
2022/10/11 09:57:58;;;;;;;9.20;2.40;;;;;;;;;;5054079;28;20029;-71
2022/10/11 10:00:31;;;;;;;11.40;3.20;;;;;;;;;;5028489;28;20128;-68
2022/10/11 10:03:02;;;;;;;15.98;3.33;;;;;;;;;;5020429;28;20032;-67
2022/10/11 10:05:29;;;;;;;9.95;2.60;;;;;;;;;;5034830;28;20070;-64
2022/10/11 10:08:10;;;;;;;12.65;2.85;;;;;;;;;;5046714;28;20045;-63
2022/10/11 10:10:38;;;;;;;10.27;2.33;;;;;;;;;;5051273;28;20097;-63
2022/10/11 10:13:16;;;;;;;10.02;2.30;;;;;;;;;;5051887;28;20040;-66
2022/10/11 10:15:45;;;;;;;30.05;3.28;;;;;;;;;;5032632;28;20485;-70
2022/10/11 10:18:28;;;;;;;10.13;2.70;;;;;;;;;;5033775;28;20033;-69
2022/10/11 10:20:58;;;;;;;9.70;2.78;;;;;;;;;;5052280;28;20389;-69
2022/10/11 10:23:27;;;;;;;9.35;2.45;;;;;;;;;;5039544;28;20036;-69
2022/10/11 10:26:10;;;;;;;8.57;2.10;;;;;;;;;;5043753;28;20045;-67
2022/10/11 10:28:35;;;;;;;9.48;2.10;;;;;;;;;;5053587;28;20037;-66
2022/10/11 10:31:01;;;;;;;12.73;1.98;;;;;;;;;;5051403;28;20384;-66
2022/10/11 10:33:32;;;;;;;10.75;2.25;;;;;;;;;;5040813;28;20368;-66
2022/10/11 10:36:20;;;;;;;6.75;1.70;;;;;;;;;;5029679;28;20119;-66
2022/10/11 10:38:57;;;;;;;8.07;1.90;;;;;;;;;;5039617;28;20026;-65
2022/10/11 10:41:23;;;;;;;9.43;1.90;;;;;;;;;;5041949;28;20135;-61
2022/10/11 10:43:55;;;;;;;11.43;1.85;;;;;;;;;;5051017;28;20104;-61
2022/10/11 10:46:26;;;;;;;6.43;2.08;;;;;;;;;;5048057;28;20036;-60
2022/10/11 10:48:52;;;;;;;;;;;;;;;;;;5047458;28;20040;-64
2022/10/11 10:51:36;;;;;;;11.23;1.98;;;;;;;;;;5044119;28;19912;-65
2022/10/11 10:54:40;;;;;;;8.63;1.98;;;;;;;;;;5044174;28;20167;-66
2022/10/11 10:57:24;;;;;;;7.00;1.80;;;;;;;;;;5020047;28;20409;-67
2022/10/11 11:00:02;;;;;;;10.02;1.77;;;;;;;;;;5013058;28;20638;-66
2022/10/11 11:02:53;;;;;;;7.55;1.90;;;;;;;;;;5019861;28;20046;-67
2022/10/11 11:05:44;;;;;;;6.05;1.73;;;;;;;;;;5036346;28;20064;-67
2022/10/11 11:08:45;;;;;;;5.18;1.42;;;;;;;;;;5034358;28;20090;-68
2022/10/11 11:11:42;;;;;;;10.18;1.98;;;;;;;;;;5012102;28;20522;-68
2022/10/11 11:14:39;;;;;;;8.00;1.92;;;;;;;;;;5032504;28;20112;-67
2022/10/11 11:17:23;;;;;;;8.82;2.00;;;;;;;;;;5031221;28;20370;-67
2022/10/11 11:20:06;;;;;;;7.85;1.58;;;;;;;;;;5042901;28;20038;-65
2022/10/11 11:22:46;;;;;;;7.03;1.95;;;;;;;;;;5051006;28;20481;-66
2022/10/11 11:25:18;;;;;;;11.40;2.13;;;;;;;;;;5052003;28;20044;-67
2022/10/11 11:28:05;;;;;;;9.93;2.03;;;;;;;;;;5045650;28;20025;-68
2022/10/11 11:30:53;;;;;;;6.03;1.90;;;;;;;;;;5026300;28;20485;-68
2022/10/11 11:33:57;;;;;;;10.30;2.10;;;;;;;;;;5042390;28;20045;-69
2022/10/11 11:36:45;;;;;;;6.03;2.00;;;;;;;;;;5014587;28;20134;-68
2022/10/11 11:39:23;;;;;;;7.65;2.00;;;;;;;;;;5029583;28;20041;-68
2022/10/11 11:41:56;;;;;;;9.70;2.58;;;;;;;;;;5035924;28;20029;-65
2022/10/11 11:44:31;;;;;;;5.75;2.00;;;;;;;;;;5049534;28;20461;-68
2022/10/11 11:47:05;;;;;;;6.05;1.70;;;;;;;;;;5032635;28;20393;-67
2022/10/11 11:49:35;;;;;;;5.70;1.60;;;;;;;;;;5029624;28;20037;-66
2022/10/11 11:52:04;;;;;;;6.55;2.00;;;;;;;;;;5051888;28;20491;-68
2022/10/11 11:54:29;;;;;;;7.43;2.20;;;;;;;;;;5047161;28;20033;-67
2022/10/11 11:57:19;;;;;;;11.05;2.40;;;;;;;;;;5040393;28;20030;-69
2022/10/11 11:59:51;;;;;;;8.70;2.28;;;;;;;;;;5045326;28;20051;-68
2022/10/11 12:02:43;;;;;;;6.07;2.13;;;;;;;;;;5049655;28;20111;-66
2022/10/11 12:05:12;;;;;;;8.18;2.30;;;;;;;;;;5018530;28;20124;-68
2022/10/11 12:08:02;;;;;;;8.82;1.95;;;;;;;;;;5033916;28;20358;-69
2022/10/11 12:10:35;;;;;;;6.90;1.70;;;;;;;;;;5043938;28;20442;-65
2022/10/11 12:13:24;;;;;;;9.57;2.05;;;;;;;;;;5046735;28;20115;-66
2022/10/11 12:15:58;;;;;;;7.00;1.83;;;;;;;;;;5043796;28;20064;-65
2022/10/11 12:18:23;;;;;;;7.88;1.90;;;;;;;;;;5039254;28;20033;-65
2022/10/11 12:21:05;;;;;;;8.40;2.15;;;;;;;;;;5034538;28;20106;-68
2022/10/11 12:23:36;;;;;;;6.95;1.95;;;;;;;;;;5037456;28;20477;-66
2022/10/11 12:26:28;;;;;;;6.45;1.65;;;;;;;;;;5049589;28;20312;-67
2022/10/11 12:29:17;;;;;;;7.47;2.10;;;;;;;;;;5048601;28;20024;-66
2022/10/11 12:31:47;;;;;;;6.65;1.77;;;;;;;;;;5049835;28;20045;-67
2022/10/11 12:34:18;;;;;;;;;;;;;;;;;;5045559;28;20078;-67
2022/10/11 12:36:46;;;;;;;6.78;2.10;;;;;;;;;;5045773;28;19920;-64
2022/10/11 12:39:41;;;;;;;7.13;2.10;;;;;;;;;;5012579;28;20468;-66
2022/10/11 12:42:38;;;;;;;6.15;1.88;;;;;;;;;;5031033;28;20052;-69
2022/10/11 12:45:10;;;;;;;6.70;1.90;;;;;;;;;;5047033;28;20171;-67
2022/10/11 12:48:06;;;;;;;7.65;1.80;;;;;;;;;;5045569;28;20500;-66
2022/10/11 12:50:49;;;;;;;5.85;1.90;;;;;;;;;;5040541;28;20080;-65
2022/10/11 12:53:35;;;;;;;8.07;2.00;;;;;;;;;;5010545;28;20033;-66
2022/10/11 12:56:11;;;;;;;9.30;1.90;;;;;;;;;;5037979;28;20037;-64
2022/10/11 12:58:40;;;;;;;5.97;1.90;;;;;;;;;;5041165;28;20397;-65
2022/10/11 13:01:10;;;;;;;7.70;1.80;;;;;;;;;;5050015;28;20040;-68
2022/10/11 13:03:40;;;;;;;6.18;1.80;;;;;;;;;;5025223;28;20042;-64
2022/10/11 13:06:28;;;;;;;5.53;2.00;;;;;;;;;;5015234;28;20158;-68
2022/10/11 13:09:17;;;;;;;9.85;2.15;;;;;;;;;;5045073;28;20501;-66
2022/10/11 13:11:53;;;;;;;6.32;1.70;;;;;;;;;;5041417;28;20026;-65
2022/10/11 13:14:21;;;;;;;5.63;1.75;;;;;;;;;;5050004;28;20071;-65
2022/10/11 13:16:56;;;;;;;9.60;1.98;;;;;;;;;;5053833;28;20450;-64
2022/10/11 13:19:22;;;;;;;7.43;1.60;;;;;;;;;;5051465;28;20029;-65
2022/10/11 13:21:55;;;;;;;5.03;1.75;;;;;;;;;;5053265;28;20053;-66
2022/10/11 13:24:22;;;;;;;5.65;1.63;;;;;;;;;;5043825;28;20095;-64
2022/10/11 13:26:50;;;;;;;5.82;1.80;;;;;;;;;;5041657;28;20038;-63
2022/10/11 13:29:25;;;;;;;8.77;1.92;;;;;;;;;;5031885;28;20065;-65
2022/10/11 13:31:50;;;;;;;5.70;1.80;;;;;;;;;;5039409;28;20075;-67
2022/10/11 13:34:16;;;;;;;5.75;1.88;;;;;;;;;;5047801;28;20061;-65
2022/10/11 13:36:41;;;;;;;7.60;1.65;;;;;;;;;;5052677;28;20033;-64
2022/10/11 13:39:24;;;;;;;4.45;1.42;;;;;;;;;;5048518;28;20041;-67
2022/10/11 13:41:49;;;;;;;7.15;1.70;;;;;;;;;;5054433;28;20119;-65
2022/10/11 13:44:15;;;;;;;7.07;1.80;;;;;;;;;;5046618;28;20553;-64
2022/10/11 13:46:41;;;;;;;6.00;1.80;;;;;;;;;;5040154;28;20041;-63
2022/10/11 13:49:24;;;;;;;9.75;1.88;;;;;;;;;;5047059;28;20033;-68
2022/10/11 13:52:00;;;;;;;7.68;2.00;;;;;;;;;;5045021;28;20185;-63
2022/10/11 13:55:01;;;;;;;7.60;1.70;;;;;;;;;;5053289;28;20029;-64
2022/10/11 13:57:39;;;;;;;;;;;;;;;;;;5050589;28;20615;-65
2022/10/11 14:00:16;;;;;;;8.45;1.73;;;;;;;;;;5041749;28;19917;-68
2022/10/11 14:02:50;;;;;;;6.03;1.48;;;;;;;;;;5020469;28;20374;-66
2022/10/11 14:05:28;;;;;;;7.47;1.98;;;;;;;;;;5034954;28;20061;-63
2022/10/11 14:07:55;;;;;;;8.48;1.80;;;;;;;;;;5038618;28;20049;-65
2022/10/11 14:10:22;;;;;;;6.32;1.75;;;;;;;;;;5030696;28;20029;-66
2022/10/11 14:12:59;;;;;;;6.40;1.70;;;;;;;;;;5033808;28;20424;-67
2022/10/11 14:15:29;;;;;;;6.10;1.77;;;;;;;;;;5030992;28;20588;-65
2022/10/11 14:17:55;;;;;;;8.85;1.70;;;;;;;;;;5032169;28;20528;-64
2022/10/11 14:20:34;;;;;;;4.82;1.50;;;;;;;;;;5023486;28;20045;-64
2022/10/11 14:22:59;;;;;;;5.43;1.60;;;;;;;;;;5022180;28;20038;-63
2022/10/11 14:25:24;;;;;;;8.00;1.88;;;;;;;;;;5043065;28;20025;-71
2022/10/11 14:27:50;;;;;;;6.07;1.50;;;;;;;;;;5053191;28;20107;-66
2022/10/11 14:30:21;;;;;;;6.47;1.80;;;;;;;;;;5052073;28;20461;-66
2022/10/11 14:32:50;;;;;;;7.30;1.65;;;;;;;;;;5041200;28;20496;-66
2022/10/11 14:35:22;;;;;;;6.15;1.67;;;;;;;;;;5026558;28;20029;-66
2022/10/11 14:37:48;;;;;;;7.75;1.58;;;;;;;;;;5014358;28;20133;-65
2022/10/11 14:40:20;;;;;;;5.90;1.60;;;;;;;;;;5046541;28;20389;-65
2022/10/11 14:42:45;;;;;;;9.10;1.80;;;;;;;;;;5047562;28;20465;-67
2022/10/11 14:45:11;;;;;;;5.85;1.70;;;;;;;;;;5035229;28;20096;-67
2022/10/11 14:47:37;;;;;;;9.63;2.15;;;;;;;;;;5037412;28;20053;-66
2022/10/11 14:50:40;;;;;;;9.15;2.10;;;;;;;;;;5036784;28;20112;-67
2022/10/11 14:53:10;;;;;;;7.13;1.58;;;;;;;;;;5017896;28;20042;-68
2022/10/11 14:55:37;;;;;;;6.95;1.95;;;;;;;;;;5034048;28;20378;-66